createdAt,value
2022-08-24T00:01:18.437Z,100647.28
2022-08-24T00:06:38.766Z,100639.66
2022-08-24T00:11:48.961Z,100645.50
2022-08-24T00:16:54.858Z,100648.50
2022-08-24T00:22:08.940Z,100649.69
2022-08-24T00:27:25.542Z,100641.25
2022-08-24T00:32:47.691Z,100640.28
2022-08-24T00:38:02.026Z,100645.25
2022-08-24T00:43:26.810Z,100644.81
2022-08-24T00:48:48.235Z,100650.44
2022-08-24T00:54:10.053Z,100652.44
2022-08-24T00:59:26.442Z,100660.91
2022-08-24T01:04:39.070Z,100663.13
2022-08-24T01:09:57.467Z,100655.69
2022-08-24T01:15:06.359Z,100664.63
2022-08-24T01:20:19.581Z,100663.50
2022-08-24T01:25:29.237Z,100667.31
2022-08-24T01:30:36.967Z,100652.75
2022-08-24T01:35:42.605Z,100656.75
2022-08-24T01:40:52.489Z,100646.31
2022-08-24T01:46:03.046Z,100660.25
2022-08-24T01:51:09.357Z,100655.28
2022-08-24T01:56:15.089Z,100653.16
2022-08-24T02:01:25.226Z,100649.22
2022-08-24T02:06:38.483Z,100647.72
2022-08-24T02:11:48.245Z,100651.56
2022-08-24T02:16:54.871Z,100650.22
2022-08-24T02:22:01.101Z,100644.47
2022-08-24T02:27:26.379Z,100646.28
2022-08-24T02:32:43.574Z,100638.50
2022-08-24T02:37:50.062Z,100641.66
2022-08-24T02:42:57.654Z,100660.56
2022-08-24T02:48:05.048Z,100658.06
2022-08-24T02:53:15.251Z,100654.59
2022-08-24T02:58:55.285Z,100663.38
2022-08-24T03:03:59.690Z,100665.06
2022-08-24T03:09:10.088Z,100673.00
2022-08-24T03:14:35.873Z,100672.00
2022-08-24T03:19:43.926Z,100667.88
2022-08-24T03:24:57.325Z,100673.81
2022-08-24T03:30:14.060Z,100680.97
2022-08-24T03:35:19.978Z,100683.75
2022-08-24T03:40:33.891Z,100685.75
2022-08-24T03:51:39.753Z,100684.13
2022-08-24T03:56:49.901Z,100683.00
2022-08-24T04:02:00.408Z,100684.16
2022-08-24T04:07:07.813Z,100693.44
2022-08-24T04:12:15.337Z,100706.97
2022-08-24T04:17:23.402Z,100700.03
2022-08-24T04:22:30.977Z,100703.50
2022-08-24T04:27:48.050Z,100708.97
2022-08-24T04:32:54.885Z,100713.44
2022-08-24T04:38:03.342Z,100708.81
2022-08-24T04:43:19.091Z,100717.56
2022-08-24T04:48:30.751Z,100731.31
2022-08-24T04:53:35.395Z,100729.97
2022-08-24T04:58:41.948Z,100741.72
2022-08-24T05:03:54.658Z,100732.13
2022-08-24T05:09:01.585Z,100729.47
2022-08-24T05:14:11.167Z,100735.75
2022-08-24T05:19:29.055Z,100740.53
2022-08-24T05:24:37.271Z,100743.78
2022-08-24T05:29:45.994Z,100743.13
2022-08-24T05:35:04.509Z,100734.06
2022-08-24T05:40:11.433Z,100745.81
2022-08-24T05:45:16.928Z,100754.66
2022-08-24T05:50:30.248Z,100750.09
2022-08-24T05:55:41.471Z,100761.09
2022-08-24T06:00:52.776Z,100752.28
2022-08-24T06:06:03.432Z,100761.84
2022-08-24T06:11:30.477Z,100781.13
2022-08-24T06:17:19.136Z,100780.13
2022-08-24T06:22:53.311Z,100774.28
2022-08-24T06:28:14.549Z,100770.50
2022-08-24T06:33:29.955Z,100771.09
2022-08-24T06:44:13.443Z,100770.69
2022-08-24T06:49:22.066Z,100770.53
2022-08-24T06:54:41.245Z,100791.53
2022-08-24T07:00:04.874Z,100769.13
2022-08-24T07:05:53.818Z,100784.31
2022-08-24T07:11:08.399Z,100798.34
2022-08-24T07:16:21.935Z,100785.34
2022-08-24T07:21:28.465Z,100790.28
2022-08-24T07:26:35.786Z,100769.84
2022-08-24T07:31:52.563Z,100770.25
2022-08-24T07:37:01.320Z,100795.13
2022-08-24T07:42:31.325Z,100782.31
2022-08-24T07:47:56.235Z,100790.28
2022-08-24T07:58:49.811Z,100788.72
2022-08-24T08:04:03.078Z,100788.94
2022-08-24T08:09:08.093Z,100786.31
2022-08-24T08:14:17.328Z,100787.72
2022-08-24T08:19:21.899Z,100779.63
2022-08-24T08:24:31.214Z,100800.63
2022-08-24T08:29:43.081Z,100792.59
2022-08-24T08:34:52.007Z,100794.19
2022-08-24T08:39:58.497Z,100793.31
2022-08-24T08:45:32.217Z,100795.09
2022-08-24T08:50:55.570Z,100799.34
2022-08-24T08:56:11.875Z,100800.69
2022-08-24T09:01:32.852Z,100789.25
2022-08-24T09:06:56.247Z,100790.97
2022-08-24T09:12:18.887Z,100800.91
2022-08-24T09:17:46.766Z,100789.78
2022-08-24T09:28:57.645Z,100778.78
2022-08-24T09:34:19.312Z,100783.84
2022-08-24T09:39:55.433Z,100768.38
2022-08-24T09:45:32.913Z,100774.25
2022-08-24T09:51:16.902Z,100772.59
2022-08-24T09:56:47.032Z,100768.81
2022-08-24T10:02:20.167Z,100759.66
2022-08-24T10:07:38.013Z,100767.50
2022-08-24T10:13:00.032Z,100774.53
2022-08-24T10:18:35.780Z,100769.19
2022-08-24T10:24:07.311Z,100762.13
2022-08-24T10:29:53.936Z,100757.31
2022-08-24T10:35:08.898Z,100744.69
2022-08-24T10:40:40.739Z,100745.28
2022-08-24T10:46:33.573Z,100743.78
2022-08-24T10:52:16.616Z,100750.19
2022-08-24T10:57:31.587Z,100748.09
2022-08-24T11:02:59.809Z,100743.28
2022-08-24T11:08:11.413Z,100740.19
2022-08-24T11:13:34.285Z,100741.97
2022-08-24T11:18:58.580Z,100745.25
2022-08-24T11:24:06.090Z,100751.72
2022-08-24T11:29:20.390Z,100751.03
2022-08-24T11:34:40.341Z,100745.88
2022-08-24T11:39:52.181Z,100746.16
2022-08-24T11:45:08.782Z,100742.81
2022-08-24T11:50:34.808Z,100747.16
2022-08-24T11:56:00.208Z,100740.47
2022-08-24T12:01:13.091Z,100739.59
2022-08-24T12:06:49.087Z,100739.59
2022-08-24T12:12:05.778Z,100736.72
2022-08-24T12:17:18.636Z,100730.78
2022-08-24T12:22:25.115Z,100724.81
2022-08-24T12:27:33.978Z,100724.47
2022-08-24T12:32:47.617Z,100715.22
2022-08-24T12:37:59.263Z,100708.91
2022-08-24T12:43:15.033Z,100706.66
2022-08-24T12:48:33.267Z,100700.34
2022-08-24T12:54:33.305Z,100707.84
2022-08-24T12:59:46.044Z,100713.13
2022-08-24T13:05:02.795Z,100708.22
2022-08-24T13:10:22.753Z,100711.00
2022-08-24T13:16:03.077Z,100715.44
2022-08-24T13:21:38.058Z,100715.56
2022-08-24T13:26:47.595Z,100716.72
2022-08-24T13:32:02.691Z,100716.13
2022-08-24T13:43:18.802Z,100705.38
2022-08-24T13:48:56.827Z,100707.25
2022-08-24T13:54:29.662Z,100701.75
2022-08-24T14:00:04.197Z,100694.84
2022-08-24T14:05:27.293Z,100693.56
2022-08-24T14:10:44.833Z,100695.44
2022-08-24T14:16:17.929Z,100688.53
2022-08-24T14:21:35.437Z,100685.16
2022-08-24T14:27:12.576Z,100678.59
2022-08-24T14:32:37.050Z,100685.47
2022-08-24T14:38:03.354Z,100674.38
2022-08-24T14:43:30.960Z,100674.38
2022-08-24T14:48:45.943Z,100674.03
2022-08-24T14:54:24.240Z,100669.59
2022-08-24T14:59:56.141Z,100665.84
2022-08-24T15:05:19.521Z,100673.53
2022-08-24T15:10:31.465Z,100664.75
2022-08-24T15:15:50.484Z,100666.03
2022-08-24T15:21:12.285Z,100660.28
2022-08-24T15:26:33.923Z,100654.31
2022-08-24T15:31:40.355Z,100646.72
2022-08-24T15:36:43.665Z,100642.97
2022-08-24T15:41:51.141Z,100653.38
2022-08-24T15:47:04.951Z,100647.19
2022-08-24T15:52:49.132Z,100646.94
2022-08-24T15:57:58.505Z,100645.75
2022-08-24T16:03:27.370Z,100646.00
2022-08-24T16:09:03.791Z,100641.91
2022-08-24T16:14:15.435Z,100637.22
2022-08-24T16:19:33.230Z,100643.66
2022-08-24T16:24:39.369Z,100637.91
2022-08-24T16:30:01.706Z,100643.53
2022-08-24T16:35:41.930Z,100631.94
2022-08-24T16:41:04.104Z,100645.28
2022-08-24T16:46:14.473Z,100640.25
2022-08-24T16:51:24.878Z,100633.25
2022-08-24T16:56:40.720Z,100642.13
2022-08-24T17:01:54.965Z,100644.59
2022-08-24T17:07:15.532Z,100630.88
2022-08-24T17:12:27.699Z,100637.41
2022-08-24T17:17:35.366Z,100640.00
2022-08-24T17:22:47.943Z,100640.56
2022-08-24T17:27:55.937Z,100640.75
2022-08-24T17:33:06.668Z,100641.66
2022-08-24T17:38:12.338Z,100657.06
2022-08-24T17:43:18.084Z,100648.06
2022-08-24T17:48:27.861Z,100655.03
2022-08-24T17:53:36.409Z,100656.75
2022-08-24T17:58:55.560Z,100661.03
2022-08-24T18:04:03.201Z,100672.66
2022-08-24T18:09:14.443Z,100667.81
2022-08-24T18:14:22.221Z,100674.88
2022-08-24T18:19:46.593Z,100681.72
2022-08-24T18:25:18.349Z,100677.06
2022-08-24T18:30:28.887Z,100694.69
2022-08-24T18:35:37.410Z,100701.19
2022-08-24T18:40:46.812Z,100701.47
2022-08-24T18:46:07.326Z,100702.78
2022-08-24T18:51:22.987Z,100712.78
2022-08-24T18:56:44.392Z,100709.72
2022-08-24T19:02:07.882Z,100719.69
2022-08-24T19:07:21.427Z,100719.34
2022-08-24T19:12:26.908Z,100722.53
2022-08-24T19:17:42.550Z,100722.59
2022-08-24T19:22:52.311Z,100725.97
2022-08-24T19:27:57.106Z,100725.00
2022-08-24T19:33:14.213Z,100722.34
2022-08-24T19:38:26.708Z,100718.00
2022-08-24T19:43:35.814Z,100716.63
2022-08-24T19:48:53.968Z,100716.84
2022-08-24T19:54:12.248Z,100713.59
2022-08-24T19:59:23.819Z,100719.00
2022-08-24T20:04:38.985Z,100718.00
2022-08-24T20:09:45.722Z,100721.75
2022-08-24T20:14:51.346Z,100724.03
2022-08-24T20:20:08.278Z,100724.06
2022-08-24T20:25:15.988Z,100727.75
2022-08-24T20:30:23.119Z,100722.66
2022-08-24T20:35:34.184Z,100721.63
2022-08-24T20:40:39.700Z,100725.34
2022-08-24T20:45:46.450Z,100725.78
2022-08-24T20:50:55.188Z,100725.59
2022-08-24T20:56:11.848Z,100735.69
2022-08-24T21:01:21.123Z,100735.88
2022-08-24T21:06:33.382Z,100728.88
2022-08-24T21:11:45.741Z,100735.84
2022-08-24T21:16:53.008Z,100733.19
2022-08-24T21:22:00.622Z,100737.50
2022-08-24T21:27:22.519Z,100733.19
2022-08-24T21:32:43.734Z,100739.56
2022-08-24T21:37:48.725Z,100740.56
2022-08-24T21:42:57.547Z,100744.47
2022-08-24T21:48:07.692Z,100746.50
2022-08-24T21:53:15.105Z,100753.50
2022-08-24T21:58:22.237Z,100759.03
2022-08-24T22:03:40.087Z,100751.81
2022-08-24T22:08:51.329Z,100753.47
2022-08-24T22:13:59.584Z,100757.09
2022-08-24T22:19:04.532Z,100743.50
2022-08-24T22:24:17.879Z,100748.00
2022-08-24T22:29:31.884Z,100745.13
2022-08-24T22:34:40.018Z,100736.06
2022-08-24T22:39:49.154Z,100725.34
2022-08-24T22:45:04.989Z,100734.16
2022-08-24T22:50:16.736Z,100725.91
2022-08-24T22:55:25.869Z,100718.91
2022-08-24T23:00:36.459Z,100713.34
2022-08-24T23:05:41.974Z,100718.63
2022-08-24T23:10:48.151Z,100714.72
2022-08-24T23:15:55.930Z,100710.97
2022-08-24T23:21:00.561Z,100720.22
2022-08-24T23:26:06.611Z,100718.94
2022-08-24T23:31:16.173Z,100723.84
2022-08-24T23:36:25.137Z,100718.09
2022-08-24T23:41:31.905Z,100713.53
2022-08-24T23:46:48.042Z,100707.56
2022-08-24T23:51:54.889Z,100704.66
2022-08-24T23:57:04.912Z,100705.91
